Time;durP1;ratioP1;P1;durP2;ratioP2;P2;SDS_P1;SDS_P2;PMS_P1;PMS_P2;Temp;Humidity;BMP_temperature;BMP_pressure;BME280_temperature;BME280_humidity;BME280_pressure;Samples;Min_cycle;Max_cycle;Signal;HPM_P1;HPM_P2
2022/01/10 00:00:48;;;;;;;11.37;7.53;;;;;19.90;99906.00;;;;2087660;28;20603;-59
2022/01/10 00:01:49;;;;;;;9.88;7.85;;;;;19.90;99905.00;;;;2088081;28;20224;-59
2022/01/10 00:02:51;;;;;;;12.10;7.73;;;;;19.90;99910.00;;;;2088251;28;20216;-59
2022/01/10 00:03:51;;;;;;;9.70;7.65;;;;;19.90;99915.00;;;;2088279;28;20235;-59
2022/01/10 00:04:52;;;;;;;9.70;7.23;;;;;19.90;99914.00;;;;2088245;28;20615;-59
2022/01/10 00:05:52;;;;;;;9.07;6.90;;;;;19.90;99915.00;;;;2088573;28;20591;-59
2022/01/10 00:06:52;;;;;;;10.33;7.67;;;;;19.90;99919.00;;;;2088404;28;20213;-59
2022/01/10 00:07:53;;;;;;;10.63;7.53;;;;;19.90;99917.00;;;;2088537;28;20209;-59
2022/01/10 00:08:53;;;;;;;9.33;7.47;;;;;19.90;99915.00;;;;2088380;28;20251;-59
2022/01/10 00:09:53;;;;;;;9.17;7.40;;;;;19.90;99920.00;;;;2088481;28;20209;-59
2022/01/10 00:10:54;;;;;;;9.60;7.03;;;;;19.80;99925.00;;;;2088092;28;20275;-59
2022/01/10 00:11:54;;;;;;;10.50;7.40;;;;;19.80;99919.00;;;;2088428;28;20727;-59
2022/01/10 00:12:54;;;;;;;10.37;8.20;;;;;19.80;99924.00;;;;2088422;28;20750;-59
2022/01/10 00:13:55;;;;;;;10.73;7.50;;;;;19.80;99920.00;;;;2086210;28;20255;-59
2022/01/10 00:14:55;;;;;;;10.37;7.70;;;;;19.80;99930.00;;;;2088302;28;20274;-59
2022/01/10 00:15:55;;;;;;;10.40;7.47;;;;;19.70;99924.00;;;;2088469;28;20212;-59
2022/01/10 00:16:56;;;;;;;9.83;7.73;;;;;19.70;99919.00;;;;2088208;28;20845;-60
2022/01/10 00:17:56;;;;;;;9.10;6.90;;;;;19.80;99935.00;;;;2088295;28;20640;-59
2022/01/10 00:18:56;;;;;;;8.93;7.07;;;;;19.80;99928.00;;;;2088232;28;20217;-59
2022/01/10 00:19:57;;;;;;;12.73;7.80;;;;;19.80;99922.00;;;;2088161;28;20213;-59
2022/01/10 00:20:57;;;;;;;9.07;7.00;;;;;19.80;99931.00;;;;2088101;28;20255;-59
2022/01/10 00:21:57;;;;;;;14.57;7.70;;;;;19.80;99937.00;;;;2088321;28;20216;-59
2022/01/10 00:22:58;;;;;;;9.03;6.87;;;;;19.90;99934.00;;;;2088297;28;20240;-59
2022/01/10 00:23:58;;;;;;;10.27;6.63;;;;;19.80;99938.00;;;;2088323;28;20236;-59
2022/01/10 00:24:58;;;;;;;10.80;7.03;;;;;19.80;99933.00;;;;2087883;28;20221;-59
2022/01/10 00:25:59;;;;;;;11.47;7.10;;;;;19.80;99929.00;;;;2088340;28;20224;-59
2022/01/10 00:26:59;;;;;;;11.20;7.43;;;;;19.80;99936.00;;;;2088297;28;20216;-59
2022/01/10 00:27:59;;;;;;;12.07;6.70;;;;;19.80;99937.00;;;;2088616;28;21027;-59
2022/01/10 00:29:00;;;;;;;12.50;7.67;;;;;19.80;99937.00;;;;2087729;28;20216;-59
2022/01/10 00:30:00;;;;;;;13.53;7.20;;;;;19.80;99939.00;;;;2087807;28;20231;-59
2022/01/10 00:31:00;;;;;;;10.30;7.00;;;;;19.80;99943.00;;;;2087837;28;20220;-59
2022/01/10 00:32:01;;;;;;;11.70;7.57;;;;;19.80;99941.00;;;;2088444;28;20238;-59
2022/01/10 00:33:02;;;;;;;10.00;7.32;;;;;19.80;99942.00;;;;2088396;28;20213;-59
2022/01/10 00:34:02;;;;;;;10.47;6.97;;;;;19.80;99943.00;;;;2088213;28;20205;-59
2022/01/10 00:35:02;;;;;;;11.10;7.20;;;;;19.80;99946.00;;;;2087939;28;20205;-59
2022/01/10 00:36:03;;;;;;;9.00;6.77;;;;;19.80;99937.00;;;;2087999;28;20309;-59
2022/01/10 00:37:03;;;;;;;9.40;6.60;;;;;19.70;99939.00;;;;2086123;28;20236;-59
2022/01/10 00:38:03;;;;;;;9.87;7.00;;;;;19.70;99939.00;;;;2087638;28;20233;-59
2022/01/10 00:39:04;;;;;;;9.03;6.83;;;;;19.70;99948.00;;;;2087824;28;20213;-58
2022/01/10 00:40:05;;;;;;;8.70;6.53;;;;;19.70;99951.00;;;;2087676;28;20220;-59
2022/01/10 00:41:05;;;;;;;9.23;6.67;;;;;19.80;99947.00;;;;2088018;28;20255;-59
2022/01/10 00:42:05;;;;;;;8.83;6.40;;;;;19.70;99952.00;;;;2088139;28;20504;-59
2022/01/10 00:43:08;;;;;;;10.20;7.23;;;;;19.70;99956.00;;;;2088119;28;20220;-58
2022/01/10 00:44:10;;;;;;;10.07;7.05;;;;;19.70;99969.00;;;;2084713;28;20688;-59
2022/01/10 00:45:17;;;;;;;9.82;6.82;;;;;19.70;99963.00;;;;2088268;28;20599;-59
2022/01/10 00:46:18;;;;;;;10.90;7.25;;;;;19.70;99966.00;;;;2077328;28;20225;-60
2022/01/10 00:47:18;;;;;;;9.27;6.77;;;;;19.70;99961.00;;;;2087419;28;20721;-59
2022/01/10 00:48:18;;;;;;;8.73;6.40;;;;;19.70;99964.00;;;;2087216;28;20759;-60
2022/01/10 00:49:19;;;;;;;8.93;6.17;;;;;19.60;99964.00;;;;2087189;28;20212;-60
2022/01/10 00:50:19;;;;;;;10.13;6.80;;;;;19.70;99976.00;;;;2087899;28;20244;-58
2022/01/10 00:51:19;;;;;;;11.30;7.03;;;;;19.70;99969.00;;;;2084364;28;20208;-60
2022/01/10 00:52:21;;;;;;;8.60;6.70;;;;;19.70;99966.00;;;;2088108;28;20234;-59
2022/01/10 00:53:22;;;;;;;11.15;7.55;;;;;19.70;99977.00;;;;2087369;28;20219;-59
2022/01/10 00:54:23;;;;;;;7.95;6.65;;;;;19.70;99966.00;;;;2087217;28;20232;-59
2022/01/10 00:55:23;;;;;;;9.20;7.03;;;;;19.70;99976.00;;;;2087591;28;20213;-59
2022/01/10 00:56:23;;;;;;;8.50;6.83;;;;;19.70;99967.00;;;;2087535;28;20209;-59
2022/01/10 00:57:24;;;;;;;9.90;6.63;;;;;19.70;99974.00;;;;2087002;28;20212;-59
2022/01/10 00:58:24;;;;;;;9.20;6.53;;;;;19.70;99971.00;;;;2086878;28;20240;-59
2022/01/10 00:59:24;;;;;;;7.47;6.07;;;;;19.60;99968.00;;;;2087544;28;20241;-59
2022/01/10 01:00:25;;;;;;;9.90;6.90;;;;;19.60;99982.00;;;;2086815;28;20310;-59
2022/01/10 01:01:25;;;;;;;7.50;6.70;;;;;19.60;99980.00;;;;2087249;28;20831;-59
2022/01/10 01:02:31;;;;;;;11.23;6.60;;;;;19.60;99981.00;;;;2086913;28;20220;-59
2022/01/10 01:03:31;;;;;;;11.52;6.70;;;;;19.60;99979.00;;;;2084255;28;20940;-59
2022/01/10 01:04:32;;;;;;;10.63;6.43;;;;;19.60;99981.00;;;;2088078;28;20228;-59
2022/01/10 01:05:38;;;;;;;8.70;6.70;;;;;19.60;99986.00;;;;2088104;28;20213;-59
2022/01/10 01:06:38;;;;;;;7.72;6.28;;;;;19.60;99986.00;;;;2088095;28;20216;-59
2022/01/10 01:07:39;;;;;;;7.43;5.90;;;;;19.60;99984.00;;;;2088064;28;20209;-59
2022/01/10 01:08:39;;;;;;;9.10;6.07;;;;;19.60;99991.00;;;;2085572;28;20209;-59
2022/01/10 01:09:44;;;;;;;8.40;6.30;;;;;19.60;99983.00;;;;2087045;28;20211;-58
2022/01/10 01:14:52;;;;;;;9.30;6.38;;;;;19.60;99991.00;;;;2084764;28;20212;-59
2022/01/10 01:17:11;;;;;;;10.60;7.25;;;;;19.60;99998.00;;;;2087645;28;20267;-59
2022/01/10 01:18:19;;;;;;;10.88;6.85;;;;;19.50;100011.00;;;;2087661;28;20236;-59
2022/01/10 01:20:30;;;;;;;7.80;6.57;;;;;19.50;100009.00;;;;2086735;28;20221;-59
2022/01/10 01:24:22;;;;;;;8.25;6.57;;;;;19.50;100009.00;;;;2075826;28;20225;-59
2022/01/10 01:25:22;;;;;;;6.50;5.77;;;;;19.50;100016.00;;;;2084135;28;20209;-58
2022/01/10 01:26:22;;;;;;;8.17;6.50;;;;;19.50;100012.00;;;;2087475;28;20251;-59
2022/01/10 01:27:23;;;;;;;9.37;6.10;;;;;19.50;100009.00;;;;2087477;28;20270;-59
2022/01/10 01:28:23;;;;;;;9.50;6.77;;;;;19.50;100021.00;;;;2087506;28;20227;-59
2022/01/10 01:29:25;;;;;;;9.23;6.20;;;;;19.50;100012.00;;;;2086315;28;20231;-59
2022/01/10 01:30:26;;;;;;;8.50;6.45;;;;;19.50;100018.00;;;;2086169;28;20932;-59
2022/01/10 01:31:26;;;;;;;10.27;6.90;;;;;19.50;100029.00;;;;2087282;28;20212;-59
2022/01/10 01:32:26;;;;;;;8.57;6.10;;;;;19.50;100023.00;;;;2087542;28;20295;-59
2022/01/10 01:33:27;;;;;;;7.30;6.53;;;;;19.50;100027.00;;;;2087536;28;20219;-59
2022/01/10 01:34:27;;;;;;;7.70;6.23;;;;;19.50;100029.00;;;;2087540;28;20269;-60
2022/01/10 01:35:28;;;;;;;9.53;6.53;;;;;19.50;100042.00;;;;2087101;28;20216;-59
2022/01/10 01:36:30;;;;;;;9.93;7.03;;;;;19.50;100039.00;;;;2087287;28;20232;-59
2022/01/10 01:37:30;;;;;;;8.32;6.40;;;;;19.50;100031.00;;;;2087675;28;20204;-59
2022/01/10 01:38:31;;;;;;;6.40;5.70;;;;;19.50;100043.00;;;;2087473;28;20559;-58
2022/01/10 01:39:32;;;;;;;11.70;6.73;;;;;19.50;100040.00;;;;2087189;28;20703;-59
2022/01/10 01:40:33;;;;;;;8.87;6.50;;;;;19.50;100041.00;;;;2086569;28;20285;-59
2022/01/10 01:43:34;;;;;;;6.93;5.87;;;;;19.50;100049.00;;;;2087402;28;20720;-58
2022/01/10 01:44:34;;;;;;;9.03;6.50;;;;;19.50;100045.00;;;;2087238;28;20215;-59
2022/01/10 01:45:40;;;;;;;7.30;6.30;;;;;19.50;100056.00;;;;2087697;28;20258;-58
2022/01/10 01:46:42;;;;;;;8.38;6.25;;;;;19.50;100052.00;;;;2087744;28;20215;-59
2022/01/10 01:47:43;;;;;;;8.52;6.63;;;;;19.40;100056.00;;;;2087868;28;20208;-58
2022/01/10 01:48:43;;;;;;;8.90;6.78;;;;;19.40;100055.00;;;;2087004;28;20703;-58
2022/01/10 01:49:44;;;;;;;8.50;5.97;;;;;19.40;100068.00;;;;2086158;28;20209;-59
2022/01/10 01:50:45;;;;;;;8.10;6.03;;;;;19.40;100073.00;;;;2087012;28;20220;-59
2022/01/10 01:51:45;;;;;;;8.10;6.20;;;;;19.40;100069.00;;;;2087361;28;20223;-59
2022/01/10 01:52:46;;;;;;;8.43;5.77;;;;;19.40;100074.00;;;;2087149;28;20220;-59
2022/01/10 01:53:46;;;;;;;8.10;6.47;;;;;19.40;100074.00;;;;2087483;28;20873;-58
2022/01/10 01:54:47;;;;;;;7.60;6.50;;;;;19.40;100081.00;;;;2086667;28;20708;-59
2022/01/10 01:55:47;;;;;;;9.73;6.27;;;;;19.40;100082.00;;;;2086649;28;20205;-58
2022/01/10 01:56:48;;;;;;;7.83;6.00;;;;;19.40;100082.00;;;;2086988;28;20224;-58
2022/01/10 01:57:48;;;;;;;7.40;5.90;;;;;19.40;100080.00;;;;2087328;28;20247;-59
2022/01/10 01:58:51;;;;;;;8.90;6.37;;;;;19.40;100082.00;;;;2087320;28;20456;-58
2022/01/10 01:59:52;;;;;;;10.77;6.63;;;;;19.40;100083.00;;;;2087034;28;20579;-59
2022/01/10 02:00:53;;;;;;;7.10;5.80;;;;;19.40;100081.00;;;;2086891;28;20217;-58
2022/01/10 02:01:54;;;;;;;9.30;6.25;;;;;19.40;100080.00;;;;2078580;28;20287;-58
2022/01/10 02:02:55;;;;;;;10.13;6.63;;;;;19.40;100090.00;;;;2078323;28;20263;-59
2022/01/10 02:03:55;;;;;;;8.02;6.00;;;;;19.40;100091.00;;;;2086617;28;20224;-58
2022/01/10 02:04:57;;;;;;;8.07;6.40;;;;;19.40;100096.00;;;;2086735;28;20211;-59
2022/01/10 02:05:57;;;;;;;7.05;6.35;;;;;19.40;100092.00;;;;2087403;28;20227;-59
2022/01/10 02:06:57;;;;;;;7.73;5.93;;;;;19.40;100095.00;;;;2087338;28;20221;-58
2022/01/10 02:07:57;;;;;;;9.00;6.50;;;;;19.40;100099.00;;;;2087116;28;20243;-58
2022/01/10 02:08:58;;;;;;;8.60;6.37;;;;;19.40;100097.00;;;;2087322;28;20209;-59
2022/01/10 02:09:58;;;;;;;9.30;6.10;;;;;19.40;100094.00;;;;2086528;28;20221;-59
2022/01/10 02:10:58;;;;;;;6.63;6.00;;;;;19.40;100099.00;;;;2086388;28;20244;-58
2022/01/10 02:11:59;;;;;;;9.60;6.47;;;;;19.40;100104.00;;;;2088848;28;20215;-59
2022/01/10 02:12:59;;;;;;;9.37;6.50;;;;;19.40;100104.00;;;;2089364;28;20217;-59
2022/01/10 02:14:00;;;;;;;7.77;5.77;;;;;19.30;100117.00;;;;2089421;28;20216;-59
2022/01/10 02:15:01;;;;;;;8.07;6.07;;;;;19.30;100093.00;;;;2088960;28;20219;-59
2022/01/10 02:16:03;;;;;;;7.23;5.70;;;;;19.40;100109.00;;;;2089302;28;20581;-58
2022/01/10 02:17:04;;;;;;;8.85;5.95;;;;;19.30;100116.00;;;;2089013;28;20216;-59
2022/01/10 02:18:05;;;;;;;7.32;5.70;;;;;19.30;100110.00;;;;2089289;28;20232;-59
2022/01/10 02:19:05;;;;;;;10.80;6.53;;;;;19.30;100119.00;;;;2089400;28;20688;-59
2022/01/10 02:20:06;;;;;;;7.20;6.10;;;;;19.30;100117.00;;;;2089279;28;20224;-59
2022/01/10 02:21:09;;;;;;;8.52;6.05;;;;;19.30;100121.00;;;;2089057;28;20652;-59
2022/01/10 02:22:09;;;;;;;7.13;5.93;;;;;19.30;100122.00;;;;2089345;28;20228;-59
2022/01/10 02:23:09;;;;;;;7.93;6.40;;;;;19.30;100117.00;;;;2089057;28;20224;-59
2022/01/10 02:24:10;;;;;;;7.80;6.33;;;;;19.30;100125.00;;;;2089106;28;20240;-59
2022/01/10 02:25:10;;;;;;;9.10;5.70;;;;;19.30;100124.00;;;;2088009;28;20209;-59
2022/01/10 02:26:11;;;;;;;8.37;6.30;;;;;19.10;100126.00;;;;2089311;28;20775;-59
2022/01/10 02:27:11;;;;;;;8.03;6.03;;;;;19.30;100131.00;;;;2080134;28;20265;-59
2022/01/10 02:28:11;;;;;;;7.63;5.90;;;;;19.30;100125.00;;;;2080276;28;20288;-59
2022/01/10 02:29:11;;;;;;;6.83;6.10;;;;;19.30;100122.00;;;;2089101;28;20209;-59
2022/01/10 02:30:12;;;;;;;7.43;6.17;;;;;19.30;100131.00;;;;2088195;28;20700;-59
2022/01/10 02:31:13;;;;;;;10.43;6.53;;;;;19.30;100137.00;;;;2088245;28;20798;-59
2022/01/10 02:32:14;;;;;;;9.10;6.80;;;;;19.30;100135.00;;;;2082967;28;20205;-59
2022/01/10 02:33:14;;;;;;;9.43;5.83;;;;;19.30;100129.00;;;;2089196;28;20239;-59
2022/01/10 02:34:18;;;;;;;10.50;6.30;;;;;19.30;100127.00;;;;2089291;28;20582;-59
2022/01/10 02:35:27;;;;;;;8.02;6.40;;;;;19.30;100142.00;;;;2088509;28;20208;-59
2022/01/10 02:36:27;;;;;;;10.27;6.25;;;;;19.30;100135.00;;;;2088528;28;20742;-59
2022/01/10 02:37:35;;;;;;;7.00;5.83;;;;;19.30;100143.00;;;;2089165;28;20217;-58
2022/01/10 02:38:35;;;;;;;8.02;6.20;;;;;19.20;100145.00;;;;2083961;28;20240;-60
2022/01/10 02:39:36;;;;;;;7.37;5.73;;;;;19.30;100147.00;;;;2089052;28;20209;-59
2022/01/10 02:40:37;;;;;;;8.18;6.38;;;;;19.20;100153.00;;;;2088855;28;20209;-59
2022/01/10 02:41:39;;;;;;;9.70;6.37;;;;;19.20;100153.00;;;;2088678;28;20224;-58
2022/01/10 02:42:40;;;;;;;11.95;7.03;;;;;19.20;100153.00;;;;2089203;28;20213;-59
2022/01/10 02:43:40;;;;;;;6.23;5.13;;;;;19.20;100156.00;;;;2088938;28;20275;-59
2022/01/10 02:44:40;;;;;;;7.57;5.53;;;;;19.20;100157.00;;;;2089078;28;20231;-59
2022/01/10 02:45:40;;;;;;;7.10;6.13;;;;;19.20;100158.00;;;;2089025;28;20230;-59
2022/01/10 02:46:41;;;;;;;8.87;5.77;;;;;19.20;100158.00;;;;2089055;28;20244;-59
2022/01/10 02:47:41;;;;;;;7.70;6.37;;;;;19.20;100166.00;;;;2088940;28;20437;-59
2022/01/10 02:48:42;;;;;;;7.97;5.80;;;;;19.20;100161.00;;;;2088982;28;20688;-59
2022/01/10 02:49:42;;;;;;;8.30;6.37;;;;;19.20;100167.00;;;;2088195;28;20220;-58
2022/01/10 02:50:43;;;;;;;6.47;5.80;;;;;19.20;100166.00;;;;2088029;28;20244;-59
2022/01/10 02:51:43;;;;;;;10.57;6.53;;;;;19.20;100168.00;;;;2088922;28;20227;-59
2022/01/10 02:52:43;;;;;;;7.47;6.07;;;;;19.20;100171.00;;;;2088767;28;20224;-59
2022/01/10 02:53:44;;;;;;;8.67;6.63;;;;;19.20;100169.00;;;;2089041;28;20216;-59
2022/01/10 02:54:44;;;;;;;5.60;5.07;;;;;19.20;100176.00;;;;2088246;28;20234;-59
2022/01/10 02:55:44;;;;;;;6.70;6.00;;;;;19.20;100178.00;;;;2088337;28;20221;-59
2022/01/10 02:56:46;;;;;;;7.23;6.10;;;;;19.20;100171.00;;;;2088809;28;20700;-59
2022/01/10 02:57:47;;;;;;;7.70;6.10;;;;;19.20;100174.00;;;;2088975;28;20217;-59
2022/01/10 02:58:47;;;;;;;7.07;5.87;;;;;19.20;100117.00;;;;2088819;28;20235;-58
2022/01/10 02:59:47;;;;;;;7.20;5.80;;;;;19.20;100177.00;;;;2088986;28;20587;-59
2022/01/10 03:00:48;;;;;;;6.93;5.90;;;;;19.20;100172.00;;;;2088080;28;20717;-59
2022/01/10 03:01:48;;;;;;;7.63;5.43;;;;;19.20;100183.00;;;;2088358;28;20361;-59
2022/01/10 03:02:50;;;;;;;8.10;6.27;;;;;19.20;100185.00;;;;2088932;28;20224;-58
2022/01/10 03:03:51;;;;;;;11.27;5.60;;;;;19.20;100190.00;;;;2088854;28;20248;-58
2022/01/10 03:04:51;;;;;;;8.00;6.07;;;;;19.20;100196.00;;;;2088902;28;20216;-59
2022/01/10 03:05:51;;;;;;;7.60;5.93;;;;;19.20;100193.00;;;;2089050;28;20623;-59
2022/01/10 03:06:52;;;;;;;7.47;5.50;;;;;19.20;100193.00;;;;2088693;28;20787;-59
2022/01/10 03:07:54;;;;;;;7.53;5.60;;;;;19.20;100196.00;;;;2088924;28;20708;-59
2022/01/10 03:08:55;;;;;;;7.93;6.07;;;;;19.20;100196.00;;;;2088868;28;20213;-59
2022/01/10 03:09:55;;;;;;;8.03;6.13;;;;;19.20;100202.00;;;;2088571;28;20241;-59
2022/01/10 03:10:56;;;;;;;7.83;6.07;;;;;19.10;100197.00;;;;2086839;28;20308;-59
2022/01/10 03:11:56;;;;;;;6.47;5.67;;;;;19.10;100194.00;;;;2088819;28;20696;-59
2022/01/10 03:12:59;;;;;;;8.90;6.23;;;;;19.10;100202.00;;;;2088958;28;20668;-59
2022/01/10 03:14:00;;;;;;;6.88;5.60;;;;;19.20;100197.00;;;;2088743;28;20568;-59
2022/01/10 03:15:01;;;;;;;7.53;5.77;;;;;19.10;100205.00;;;;2088585;28;20209;-58
2022/01/10 03:16:01;;;;;;;7.03;5.80;;;;;19.10;100199.00;;;;2088894;28;20747;-59
2022/01/10 03:17:01;;;;;;;6.23;5.63;;;;;19.20;100207.00;;;;2088863;28;20317;-58
2022/01/10 03:18:02;;;;;;;6.37;5.40;;;;;19.20;100210.00;;;;2088819;28;20303;-59
2022/01/10 03:19:02;;;;;;;6.73;5.70;;;;;19.10;100212.00;;;;2088553;28;20240;-59
2022/01/10 03:20:04;;;;;;;11.97;6.07;;;;;19.10;100210.00;;;;2088431;28;20232;-59
2022/01/10 03:21:04;;;;;;;7.22;5.80;;;;;19.20;100222.00;;;;2088407;28;20213;-58
2022/01/10 03:22:05;;;;;;;8.87;5.47;;;;;19.10;100220.00;;;;2087305;28;20232;-59
2022/01/10 03:23:05;;;;;;;6.90;5.70;;;;;19.10;100218.00;;;;2088156;28;20223;-59
2022/01/10 03:24:06;;;;;;;10.00;5.80;;;;;19.10;100218.00;;;;2088404;28;20274;-59
2022/01/10 03:25:06;;;;;;;7.80;5.90;;;;;19.10;100215.00;;;;2088652;28;20698;-59
2022/01/10 03:26:07;;;;;;;7.47;5.70;;;;;19.10;100219.00;;;;2088774;28;20212;-59
2022/01/10 03:27:07;;;;;;;8.27;5.83;;;;;19.10;100221.00;;;;2088475;28;20227;-58
2022/01/10 03:28:10;;;;;;;6.97;5.00;;;;;19.10;100224.00;;;;2088682;28;20230;-58
2022/01/10 03:29:10;;;;;;;6.15;5.32;;;;;19.10;100223.00;;;;2088748;28;20299;-59
2022/01/10 03:30:11;;;;;;;8.30;5.80;;;;;19.10;100224.00;;;;2087896;28;20742;-59
2022/01/10 03:31:11;;;;;;;7.50;5.33;;;;;19.10;100225.00;;;;2087433;28;20213;-59
2022/01/10 03:32:11;;;;;;;6.23;5.50;;;;;19.10;100225.00;;;;2088674;28;20225;-59
2022/01/10 03:33:12;;;;;;;6.50;5.57;;;;;19.10;100233.00;;;;2088892;28;20205;-59
2022/01/10 03:34:13;;;;;;;7.50;5.30;;;;;19.10;100231.00;;;;2087706;28;20431;-61
2022/01/10 03:35:13;;;;;;;7.10;5.50;;;;;19.10;100237.00;;;;2088631;28;20263;-60
2022/01/10 03:36:14;;;;;;;7.43;5.63;;;;;19.10;100223.00;;;;2088267;28;20741;-59
2022/01/10 03:37:14;;;;;;;7.50;5.77;;;;;19.10;100228.00;;;;2088428;28;20280;-59
2022/01/10 03:38:14;;;;;;;8.43;5.60;;;;;19.10;100238.00;;;;2088493;28;20212;-59
2022/01/10 03:39:14;;;;;;;7.53;5.57;;;;;19.10;100240.00;;;;2088611;28;20213;-59
2022/01/10 03:40:15;;;;;;;8.83;5.70;;;;;19.10;100227.00;;;;2088458;28;20311;-59
2022/01/10 03:41:15;;;;;;;7.20;5.43;;;;;19.00;100235.00;;;;2088564;28;20224;-59
2022/01/10 03:42:16;;;;;;;6.77;4.87;;;;;19.10;100236.00;;;;2088480;28;20229;-59
2022/01/10 03:43:16;;;;;;;6.13;5.40;;;;;19.00;100232.00;;;;2088554;28;20217;-58
2022/01/10 03:44:16;;;;;;;6.87;6.10;;;;;19.10;100233.00;;;;2087979;28;20224;-59
2022/01/10 03:45:17;;;;;;;8.10;5.47;;;;;19.10;100240.00;;;;2088623;28;20208;-59
2022/01/10 03:46:17;;;;;;;7.13;5.83;;;;;19.10;100242.00;;;;2088034;28;20208;-59
2022/01/10 03:47:18;;;;;;;6.90;5.80;;;;;19.00;100238.00;;;;2088171;28;20294;-59
2022/01/10 03:48:19;;;;;;;7.55;4.95;;;;;19.00;100245.00;;;;2088054;28;20220;-59
2022/01/10 03:49:19;;;;;;;8.30;5.63;;;;;19.10;100245.00;;;;2088283;28;20276;-58
2022/01/10 03:50:19;;;;;;;5.63;4.97;;;;;19.10;100242.00;;;;2087607;28;20220;-59
2022/01/10 03:51:20;;;;;;;7.73;5.37;;;;;19.10;100247.00;;;;2086166;28;20204;-59
2022/01/10 03:52:20;;;;;;;6.93;5.27;;;;;19.00;100246.00;;;;2088022;28;20251;-59
2022/01/10 03:53:21;;;;;;;6.60;5.90;;;;;19.00;100246.00;;;;2088067;28;20235;-58
2022/01/10 03:54:22;;;;;;;6.47;5.05;;;;;19.00;100246.00;;;;2087264;28;20211;-58
2022/01/10 03:55:22;;;;;;;6.47;5.53;;;;;19.00;100249.00;;;;2087474;28;20201;-59
2022/01/10 03:56:23;;;;;;;6.07;5.43;;;;;19.00;100248.00;;;;2087297;28;20236;-59
2022/01/10 03:57:24;;;;;;;7.47;5.15;;;;;19.00;100250.00;;;;2085225;28;20266;-58
2022/01/10 03:58:24;;;;;;;6.57;5.30;;;;;19.00;100255.00;;;;2088572;28;20213;-58
2022/01/10 03:59:24;;;;;;;6.10;4.70;;;;;19.00;100251.00;;;;2087787;28;20479;-58
2022/01/10 04:00:25;;;;;;;8.40;5.90;;;;;19.00;100262.00;;;;2087510;28;20213;-58
2022/01/10 04:01:25;;;;;;;8.03;5.93;;;;;19.00;100251.00;;;;2088430;28;20213;-59
2022/01/10 04:02:28;;;;;;;5.77;5.27;;;;;19.00;100255.00;;;;2088237;28;20213;-59
2022/01/10 04:03:29;;;;;;;6.22;5.13;;;;;19.00;100261.00;;;;2088063;28;20224;-59
2022/01/10 04:04:29;;;;;;;6.20;4.90;;;;;19.00;100257.00;;;;2088289;28;20212;-59
2022/01/10 04:05:30;;;;;;;6.80;5.07;;;;;19.00;100262.00;;;;2088435;28;20211;-59
2022/01/10 04:06:30;;;;;;;6.43;5.00;;;;;19.00;100262.00;;;;2087643;28;20700;-59
2022/01/10 04:07:30;;;;;;;6.63;5.40;;;;;19.00;100274.00;;;;2087688;28;20303;-59
2022/01/10 04:08:31;;;;;;;9.13;5.63;;;;;19.00;100267.00;;;;2086827;28;20577;-58
2022/01/10 04:09:31;;;;;;;6.03;5.07;;;;;19.00;100272.00;;;;2078914;28;20807;-59
2022/01/10 04:10:31;;;;;;;5.50;5.00;;;;;19.00;100260.00;;;;2086893;28;20209;-59
2022/01/10 04:11:32;;;;;;;8.47;5.50;;;;;19.00;100268.00;;;;2087967;28;20291;-59
2022/01/10 04:12:32;;;;;;;5.53;5.03;;;;;19.00;100260.00;;;;2087873;28;20289;-59
2022/01/10 04:13:32;;;;;;;5.87;5.17;;;;;19.00;100266.00;;;;2088425;28;20208;-59
2022/01/10 04:14:33;;;;;;;5.93;5.27;;;;;19.00;100272.00;;;;2088303;28;20205;-59
2022/01/10 04:15:33;;;;;;;5.57;4.80;;;;;19.00;100279.00;;;;2088488;28;20204;-59
2022/01/10 04:16:33;;;;;;;5.93;5.07;;;;;18.90;100283.00;;;;2088424;28;20286;-58
2022/01/10 04:17:35;;;;;;;5.27;4.77;;;;;18.90;100287.00;;;;2088349;28;20235;-58
2022/01/10 04:18:35;;;;;;;6.18;5.00;;;;;18.90;100284.00;;;;2088357;28;20720;-59
2022/01/10 04:19:35;;;;;;;6.27;5.00;;;;;19.00;100284.00;;;;2088201;28;20205;-59
2022/01/10 04:20:36;;;;;;;6.10;5.50;;;;;19.00;100288.00;;;;2087946;28;20209;-58
2022/01/10 04:21:36;;;;;;;5.77;5.03;;;;;19.00;100295.00;;;;2088308;28;20556;-58
2022/01/10 04:22:36;;;;;;;6.17;5.30;;;;;19.00;100294.00;;;;2088353;28;20205;-59
2022/01/10 04:23:37;;;;;;;5.47;4.87;;;;;19.00;100291.00;;;;2088278;28;20224;-59
2022/01/10 04:24:37;;;;;;;5.10;4.57;;;;;18.90;100301.00;;;;2088455;28;20232;-59
2022/01/10 04:25:38;;;;;;;6.50;5.67;;;;;18.90;100285.00;;;;2088299;28;20262;-59
2022/01/10 04:26:38;;;;;;;6.10;5.50;;;;;18.90;100303.00;;;;2087485;28;20746;-59
2022/01/10 04:27:38;;;;;;;5.87;5.20;;;;;18.90;100285.00;;;;2087628;28;20266;-59
2022/01/10 04:28:39;;;;;;;6.33;5.17;;;;;18.90;100314.00;;;;2088081;28;20213;-58
2022/01/10 04:29:39;;;;;;;6.00;5.40;;;;;18.90;100308.00;;;;2088317;28;20300;-59
2022/01/10 04:30:39;;;;;;;5.80;5.20;;;;;18.90;100307.00;;;;2087793;28;20231;-58
2022/01/10 04:31:40;;;;;;;7.53;5.33;;;;;18.90;100313.00;;;;2088085;28;20256;-58
2022/01/10 04:32:42;;;;;;;7.07;5.07;;;;;18.90;100318.00;;;;2088226;28;20224;-58
2022/01/10 04:33:42;;;;;;;6.13;4.95;;;;;18.90;100324.00;;;;2088242;28;20213;-59
2022/01/10 04:34:44;;;;;;;6.30;5.33;;;;;18.90;100331.00;;;;2087828;28;20242;-59
2022/01/10 04:35:44;;;;;;;5.60;5.00;;;;;18.90;100332.00;;;;2087570;28;20223;-58
2022/01/10 04:36:45;;;;;;;5.50;4.90;;;;;18.90;100333.00;;;;2088076;28;20678;-59
2022/01/10 04:37:45;;;;;;;5.03;4.53;;;;;18.90;100340.00;;;;2088102;28;20307;-58
2022/01/10 04:38:46;;;;;;;5.80;5.23;;;;;18.90;100342.00;;;;2088241;28;20216;-59
2022/01/10 04:39:46;;;;;;;7.17;5.70;;;;;18.90;100336.00;;;;2088235;28;20240;-58
2022/01/10 04:40:47;;;;;;;5.13;4.63;;;;;18.90;100337.00;;;;2087858;28;20458;-59
2022/01/10 04:41:47;;;;;;;6.57;5.10;;;;;18.90;100349.00;;;;2088222;28;20241;-58
2022/01/10 04:42:47;;;;;;;5.47;4.97;;;;;18.90;100346.00;;;;2088017;28;20271;-59
2022/01/10 04:43:48;;;;;;;5.90;5.30;;;;;18.90;100353.00;;;;2088018;28;20233;-59
2022/01/10 04:44:49;;;;;;;5.73;5.13;;;;;18.90;100349.00;;;;2088304;28;20248;-59
2022/01/10 04:45:49;;;;;;;5.45;4.95;;;;;18.90;100352.00;;;;2088132;28;20221;-58
2022/01/10 04:46:51;;;;;;;7.60;5.47;;;;;18.90;100360.00;;;;2087511;28;20225;-58
2022/01/10 04:47:51;;;;;;;5.90;5.30;;;;;18.90;100358.00;;;;2083839;28;20213;-58
2022/01/10 04:48:52;;;;;;;5.67;4.70;;;;;18.80;100362.00;;;;2088142;28;20247;-58
2022/01/10 04:51:12;;;;;;;8.05;5.00;;;;;18.90;100366.00;;;;2083555;28;20220;-59
2022/01/10 04:52:12;;;;;;;7.40;5.45;;;;;18.90;100385.00;;;;2088344;28;20282;-59
2022/01/10 04:53:12;;;;;;;7.83;5.77;;;;;18.90;100370.00;;;;2088050;28;20676;-58
2022/01/10 04:54:13;;;;;;;7.27;5.10;;;;;18.80;100373.00;;;;2088147;28;20699;-58
2022/01/10 04:55:13;;;;;;;5.63;5.10;;;;;18.90;100372.00;;;;2088065;28;20220;-59
2022/01/10 04:56:14;;;;;;;7.33;5.20;;;;;18.90;100384.00;;;;2087929;28;20221;-59
2022/01/10 04:57:15;;;;;;;6.72;5.30;;;;;18.80;100376.00;;;;2087995;28;20213;-59
2022/01/10 04:58:15;;;;;;;5.90;5.10;;;;;18.80;100376.00;;;;2087814;28;20232;-59
2022/01/10 04:59:16;;;;;;;6.73;5.67;;;;;18.80;100377.00;;;;2088070;28;20209;-59
2022/01/10 05:00:16;;;;;;;6.40;4.82;;;;;18.80;100387.00;;;;2087951;28;20224;-59
2022/01/10 05:01:17;;;;;;;6.67;4.80;;;;;18.80;100385.00;;;;2087862;28;20570;-58
2022/01/10 05:02:17;;;;;;;5.77;4.50;;;;;18.80;100391.00;;;;2088155;28;20746;-58
2022/01/10 05:03:17;;;;;;;7.83;5.30;;;;;18.80;100390.00;;;;2087978;28;20978;-59
2022/01/10 05:04:18;;;;;;;7.43;5.40;;;;;18.80;100389.00;;;;2087850;28;20232;-58
2022/01/10 05:05:18;;;;;;;6.37;5.60;;;;;18.80;100391.00;;;;2087926;28;20776;-58
2022/01/10 05:06:18;;;;;;;8.50;5.17;;;;;18.80;100387.00;;;;2087978;28;20715;-59
2022/01/10 05:07:19;;;;;;;6.03;4.90;;;;;18.80;100396.00;;;;2088105;28;20688;-58
2022/01/10 05:08:20;;;;;;;5.93;5.17;;;;;18.80;100394.00;;;;2088052;28;20214;-58
2022/01/10 05:09:21;;;;;;;5.82;5.28;;;;;18.80;100397.00;;;;2087982;28;20209;-59
2022/01/10 05:10:21;;;;;;;6.90;4.97;;;;;18.80;100387.00;;;;2087746;28;20745;-58
2022/01/10 05:11:21;;;;;;;8.33;5.83;;;;;18.80;100405.00;;;;2087887;28;20700;-58
2022/01/10 05:12:24;;;;;;;6.30;5.13;;;;;18.80;100406.00;;;;2088074;28;20707;-59
2022/01/10 05:13:24;;;;;;;6.63;4.93;;;;;18.80;100400.00;;;;2088021;28;20209;-59